createdAt,value
2017-05-20T00:00:08.188Z,12.04
2017-05-20T00:00:48.797Z,12
2017-05-20T00:01:29.474Z,12.09
2017-05-20T00:02:10.023Z,12.03
2017-05-20T00:02:50.607Z,11.99
2017-05-20T00:03:31.181Z,12.02
2017-05-20T00:04:11.794Z,12.04
2017-05-20T00:04:52.315Z,11.91
2017-05-20T00:05:33.001Z,11.99
2017-05-20T00:06:13.592Z,12.04
2017-05-20T00:06:54.493Z,11.94
2017-05-20T00:07:35.063Z,12.06
2017-05-20T00:08:15.578Z,11.9
2017-05-20T00:08:56.087Z,12.02
2017-05-20T00:09:38.662Z,12.03
2017-05-20T00:10:19.235Z,11.91
2017-05-20T00:10:59.820Z,12.02
2017-05-20T00:11:40.339Z,11.97
2017-05-20T00:12:20.939Z,11.95
2017-05-20T00:13:01.549Z,11.97
2017-05-20T00:13:42.145Z,11.91
2017-05-20T00:14:22.644Z,11.94
2017-05-20T00:15:03.236Z,12.03
2017-05-20T00:15:43.788Z,11.95
2017-05-20T00:16:24.334Z,11.91
2017-05-20T00:17:04.902Z,11.94
2017-05-20T00:17:45.543Z,11.9
2017-05-20T00:18:26.107Z,11.9
2017-05-20T00:19:06.699Z,12.06
2017-05-20T00:19:47.306Z,12.04
2017-05-20T00:20:27.856Z,11.88
2017-05-20T00:21:08.460Z,11.94
2017-05-20T00:21:49.002Z,11.9
2017-05-20T00:22:29.556Z,11.94
2017-05-20T00:23:10.093Z,11.91
2017-05-20T00:23:50.652Z,11.94
2017-05-20T00:24:31.198Z,11.91
2017-05-20T00:25:11.727Z,11.88
2017-05-20T00:25:52.291Z,11.9
2017-05-20T00:26:32.838Z,11.9
2017-05-20T00:27:13.407Z,12.03
2017-05-20T00:27:53.950Z,11.95
2017-05-20T00:28:34.506Z,11.87
2017-05-20T00:29:15.036Z,11.97
2017-05-20T00:29:55.595Z,11.95
2017-05-20T00:30:37.208Z,11.99
2017-05-20T00:31:17.807Z,11.95
2017-05-20T00:31:58.352Z,11.95
2017-05-20T00:32:38.927Z,11.97
2017-05-20T00:33:20.541Z,12
2017-05-20T00:34:02.162Z,12.03
2017-05-20T00:34:42.688Z,11.9
2017-05-20T00:35:23.291Z,11.94
2017-05-20T00:36:03.809Z,11.94
2017-05-20T00:36:44.424Z,11.86
2017-05-20T00:37:24.952Z,11.95
2017-05-20T00:38:05.494Z,11.88
2017-05-20T00:38:46.101Z,11.94
2017-05-20T00:39:26.623Z,11.94
2017-05-20T00:40:07.224Z,11.97
2017-05-20T00:40:47.760Z,11.91
2017-05-20T00:41:28.323Z,11.87
2017-05-20T00:42:08.873Z,11.88
2017-05-20T00:42:49.428Z,11.91
2017-05-20T00:43:32.054Z,11.84
2017-05-20T00:44:13.609Z,11.88
2017-05-20T00:44:54.173Z,11.87
2017-05-20T00:45:34.778Z,11.83
2017-05-20T00:46:15.320Z,11.8
2017-05-20T00:46:55.944Z,11.8
2017-05-20T00:47:36.462Z,11.8
2017-05-20T00:48:17.073Z,11.83
2017-05-20T00:48:57.664Z,11.8
2017-05-20T00:49:43.189Z,11.8
2017-05-20T00:50:23.697Z,11.88
2017-05-20T00:51:04.303Z,11.83
2017-05-20T00:51:45.877Z,11.73
2017-05-20T00:52:27.452Z,11.75
2017-05-20T00:53:13.038Z,11.73
2017-05-20T00:53:54.601Z,11.78
2017-05-20T00:54:35.197Z,11.63
2017-05-20T00:55:15.834Z,11.69
2017-05-20T00:55:56.404Z,11.72
2017-05-20T00:56:36.915Z,11.8
2017-05-20T00:57:17.493Z,11.72
2017-05-20T00:57:59.061Z,11.72
2017-05-20T00:58:39.608Z,11.73
2017-05-20T00:59:21.151Z,11.68
2017-05-20T01:00:01.730Z,11.7
2017-05-20T01:00:43.282Z,11.68
2017-05-20T01:01:23.829Z,11.72
2017-05-20T01:02:05.456Z,11.7
2017-05-20T01:02:46.010Z,11.72
2017-05-20T01:03:26.492Z,11.68
2017-05-20T01:04:13.018Z,11.68
2017-05-20T01:04:55.591Z,11.69
2017-05-20T01:05:36.114Z,11.63
2017-05-20T01:06:17.735Z,11.6
2017-05-20T01:07:03.353Z,11.65
2017-05-20T01:07:43.939Z,11.62
2017-05-20T01:08:24.469Z,11.63
2017-05-20T01:09:06.106Z,11.66
2017-05-20T01:09:48.666Z,11.62
2017-05-20T01:10:29.188Z,11.65
2017-05-20T01:11:09.797Z,11.55
2017-05-20T01:11:56.986Z,11.48
2017-05-20T01:12:37.554Z,11.6
2017-05-20T01:13:18.093Z,11.55
2017-05-20T01:13:58.680Z,11.55
2017-05-20T01:14:39.228Z,11.52
2017-05-20T01:15:21.830Z,11.47
2017-05-20T01:16:02.389Z,11.44
2017-05-20T01:16:42.936Z,11.5
2017-05-20T01:17:28.510Z,11.5
2017-05-20T01:18:13.968Z,11.37
2017-05-20T01:18:55.557Z,11.4
2017-05-20T01:19:36.188Z,11.35
2017-05-20T01:20:16.748Z,11.37
2017-05-20T01:20:57.288Z,11.25
2017-05-20T01:21:38.917Z,11.25
2017-05-20T01:22:29.956Z,11.3
2017-05-20T01:23:23.516Z,11.18
2017-05-20T01:24:05.083Z,11.15
2017-05-20T01:24:47.691Z,11.1
2017-05-20T01:25:30.312Z,11.14
2017-05-20T01:26:11.933Z,10.97
2017-05-20T01:26:54.556Z,11.07
2017-05-20T01:27:35.082Z,11.07
2017-05-20T01:28:21.508Z,10.99
2017-05-20T01:29:03.122Z,11.02
2017-05-20T01:29:45.767Z,11.02
2017-05-20T01:30:27.342Z,10.89
2017-05-20T01:31:08.917Z,10.92
2017-05-20T01:31:50.490Z,10.94
2017-05-20T01:32:31.064Z,10.89
2017-05-20T01:33:13.642Z,10.82
2017-05-20T01:33:54.215Z,10.89
2017-05-20T01:34:34.850Z,10.84
2017-05-20T01:35:20.218Z,10.74
2017-05-20T01:36:00.862Z,10.78
2017-05-20T01:36:41.515Z,10.81
2017-05-20T01:37:22.067Z,10.76
2017-05-20T01:38:04.663Z,10.89
2017-05-20T01:38:45.226Z,10.74
2017-05-20T01:39:27.817Z,10.69
2017-05-20T01:40:08.318Z,10.68
2017-05-20T01:40:53.540Z,10.68
2017-05-20T01:41:45.972Z,10.71
2017-05-20T01:42:32.556Z,10.64
2017-05-20T01:43:15.165Z,10.6
2017-05-20T01:43:55.717Z,10.64
2017-05-20T01:44:37.281Z,10.64
2017-05-20T01:45:19.892Z,10.6
2017-05-20T01:46:01.510Z,10.71
2017-05-20T01:46:47.725Z,10.64
2017-05-20T01:47:28.255Z,10.64
2017-05-20T01:48:09.874Z,10.61
2017-05-20T01:48:50.453Z,10.56
2017-05-20T01:49:31.975Z,10.57
2017-05-20T01:50:12.466Z,10.48
2017-05-20T01:50:54.017Z,10.48
2017-05-20T01:51:35.557Z,10.49
2017-05-20T01:52:16.125Z,10.44
2017-05-20T01:52:58.724Z,10.54
2017-05-20T01:53:39.346Z,10.37
2017-05-20T01:54:19.919Z,10.41
2017-05-20T01:55:00.469Z,10.46
2017-05-20T01:55:41.049Z,10.44
2017-05-20T01:56:28.205Z,10.41
2017-05-20T01:57:08.728Z,10.37
2017-05-20T01:57:54.015Z,10.37
2017-05-20T01:58:34.631Z,10.28
2017-05-20T01:59:16.243Z,10.33
2017-05-20T01:59:57.148Z,10.3
2017-05-20T02:00:43.494Z,10.26
2017-05-20T02:01:26.113Z,10.23
2017-05-20T02:02:12.477Z,10.28
2017-05-20T02:02:53.049Z,10.2
2017-05-20T02:03:35.621Z,10.2
2017-05-20T02:04:18.244Z,10.23
2017-05-20T02:04:59.857Z,10.26
2017-05-20T02:05:40.472Z,10.15
2017-05-20T02:06:22.047Z,10.22
2017-05-20T02:07:02.599Z,10.19
2017-05-20T02:07:44.158Z,10.19
2017-05-20T02:08:25.790Z,10.16
2017-05-20T02:09:06.282Z,10.1
2017-05-20T02:09:46.863Z,10.13
2017-05-20T02:10:27.397Z,10.07
2017-05-20T02:11:07.947Z,10.12
2017-05-20T02:11:48.499Z,10.07
2017-05-20T02:12:30.074Z,10.13
2017-05-20T02:13:11.649Z,10.1
2017-05-20T02:13:52.199Z,10.1
2017-05-20T02:14:40.519Z,9.99
2017-05-20T02:15:22.330Z,10.04
2017-05-20T02:16:08.863Z,10.07
2017-05-20T02:16:50.458Z,10.02
2017-05-20T02:17:30.959Z,9.99
2017-05-20T02:18:12.606Z,9.99
2017-05-20T02:18:57.809Z,10.04
2017-05-20T02:19:38.392Z,9.95
2017-05-20T02:20:18.918Z,9.94
2017-05-20T02:20:59.517Z,9.98
2017-05-20T02:21:45.011Z,9.98
2017-05-20T02:22:25.520Z,10.01
2017-05-20T02:23:06.086Z,9.95
2017-05-20T02:23:46.642Z,9.91
2017-05-20T02:24:27.198Z,9.92
2017-05-20T02:25:07.746Z,9.94
2017-05-20T02:25:48.318Z,9.92
2017-05-20T02:26:28.926Z,9.95
2017-05-20T02:27:09.443Z,9.95
2017-05-20T02:27:51.067Z,9.86
2017-05-20T02:28:33.614Z,9.89
2017-05-20T02:29:16.148Z,9.89
2017-05-20T02:29:56.691Z,9.84
2017-05-20T02:30:37.246Z,9.86
2017-05-20T02:31:19.854Z,9.8
2017-05-20T02:32:00.387Z,9.82
2017-05-20T02:32:43.015Z,9.83
2017-05-20T02:33:24.564Z,9.83
2017-05-20T02:34:05.083Z,9.82
2017-05-20T02:34:50.504Z,9.84
2017-05-20T02:35:32.067Z,9.82
2017-05-20T02:36:12.563Z,9.82
2017-05-20T02:36:57.967Z,9.82
2017-05-20T02:37:39.602Z,9.83
2017-05-20T02:38:21.220Z,9.79
2017-05-20T02:39:01.743Z,9.79
2017-05-20T02:39:43.372Z,9.73
2017-05-20T02:40:24.988Z,9.74
2017-05-20T02:41:07.596Z,9.8
2017-05-20T02:41:48.131Z,9.73
2017-05-20T02:42:28.690Z,9.76
2017-05-20T02:43:11.285Z,9.74
2017-05-20T02:43:51.832Z,9.68
2017-05-20T02:44:32.414Z,9.69
2017-05-20T02:45:17.845Z,9.72
2017-05-20T02:45:58.385Z,9.69
2017-05-20T02:46:38.956Z,9.73
2017-05-20T02:47:19.499Z,9.62
2017-05-20T02:48:02.098Z,9.68
2017-05-20T02:48:42.648Z,9.68
2017-05-20T02:49:23.200Z,9.68
2017-05-20T02:50:14.305Z,9.66
2017-05-20T02:50:54.805Z,9.65
2017-05-20T02:51:35.346Z,9.64
2017-05-20T02:52:16.904Z,9.62
2017-05-20T02:52:57.429Z,9.65
2017-05-20T02:53:37.973Z,9.62
2017-05-20T02:54:18.611Z,9.62
2017-05-20T02:54:59.160Z,9.61
2017-05-20T02:55:39.736Z,9.65
2017-05-20T02:56:20.379Z,9.61
2017-05-20T02:57:02.978Z,9.64
2017-05-20T02:57:43.547Z,9.61
2017-05-20T02:58:24.074Z,9.68
2017-05-20T02:59:05.656Z,9.56
2017-05-20T02:59:46.208Z,9.61
2017-05-20T03:00:26.757Z,9.54
2017-05-20T03:01:07.293Z,9.62
2017-05-20T03:01:47.832Z,9.5
2017-05-20T03:02:28.408Z,9.54
2017-05-20T03:03:08.904Z,9.56
2017-05-20T03:03:49.415Z,9.54
2017-05-20T03:04:31.014Z,9.51
2017-05-20T03:05:11.611Z,9.55
2017-05-20T03:05:52.115Z,9.5
2017-05-20T03:06:32.733Z,9.47
2017-05-20T03:07:13.302Z,9.58
2017-05-20T03:07:53.922Z,9.51
2017-05-20T03:08:34.487Z,9.54
2017-05-20T03:09:15.055Z,9.56
2017-05-20T03:09:55.609Z,9.54
2017-05-20T03:10:36.150Z,9.54
2017-05-20T03:11:16.687Z,9.5
2017-05-20T03:11:57.242Z,9.51
2017-05-20T03:12:37.784Z,9.51
2017-05-20T03:13:18.350Z,9.48
2017-05-20T03:13:58.913Z,9.56
2017-05-20T03:14:39.563Z,9.5
2017-05-20T03:15:20.114Z,9.46
2017-05-20T03:16:01.647Z,9.47
2017-05-20T03:16:42.187Z,9.48
2017-05-20T03:17:22.777Z,9.46
2017-05-20T03:18:03.328Z,9.51
2017-05-20T03:18:43.874Z,9.41
2017-05-20T03:19:24.457Z,9.44
2017-05-20T03:20:05.055Z,9.39
2017-05-20T03:20:45.576Z,9.41
2017-05-20T03:21:26.178Z,9.41
2017-05-20T03:22:06.725Z,9.44
2017-05-20T03:22:47.294Z,9.44
2017-05-20T03:23:28.852Z,9.4
2017-05-20T03:24:09.405Z,9.39
2017-05-20T03:24:49.955Z,9.43
2017-05-20T03:25:30.522Z,9.41
2017-05-20T03:26:11.110Z,9.4
2017-05-20T03:26:51.688Z,9.37
2017-05-20T03:27:32.265Z,9.31
2017-05-20T03:28:12.808Z,9.36
2017-05-20T03:28:53.412Z,9.31
2017-05-20T03:29:33.994Z,9.28
2017-05-20T03:30:14.507Z,9.32
2017-05-20T03:30:55.111Z,9.25
2017-05-20T03:31:35.671Z,9.29
2017-05-20T03:32:16.216Z,9.28
2017-05-20T03:32:56.772Z,9.29
2017-05-20T03:33:37.337Z,9.26
2017-05-20T03:34:17.893Z,9.36
2017-05-20T03:34:58.548Z,9.28
2017-05-20T03:35:39.080Z,9.25
2017-05-20T03:36:19.594Z,9.23
2017-05-20T03:37:00.123Z,9.28
2017-05-20T03:37:40.760Z,9.28
2017-05-20T03:38:21.360Z,9.36
2017-05-20T03:39:01.896Z,9.23
2017-05-20T03:39:42.476Z,9.23
2017-05-20T03:40:23.114Z,9.28
2017-05-20T03:41:03.637Z,9.21
2017-05-20T03:41:44.244Z,9.23
2017-05-20T03:42:24.818Z,9.26
2017-05-20T03:43:05.422Z,9.26
2017-05-20T03:43:45.948Z,9.23
2017-05-20T03:44:26.551Z,9.25
2017-05-20T03:45:07.131Z,9.23
2017-05-20T03:45:47.726Z,9.26
2017-05-20T03:46:28.267Z,9.25
2017-05-20T03:47:08.848Z,9.29
2017-05-20T03:47:50.500Z,9.29
2017-05-20T03:48:31.054Z,9.22
2017-05-20T03:49:11.582Z,9.26
2017-05-20T03:49:52.196Z,9.26
2017-05-20T03:50:32.768Z,9.26
2017-05-20T03:51:13.362Z,9.28
2017-05-20T03:51:53.910Z,9.32
2017-05-20T03:52:34.459Z,9.25
2017-05-20T03:53:15.012Z,9.26
2017-05-20T03:53:55.562Z,9.26
2017-05-20T03:54:36.114Z,9.19
2017-05-20T03:55:16.662Z,9.39
2017-05-20T03:55:57.188Z,9.28
2017-05-20T03:56:37.800Z,9.29
2017-05-20T03:57:18.376Z,9.26
2017-05-20T03:57:58.968Z,9.32
2017-05-20T03:58:39.487Z,9.25
2017-05-20T03:59:20.077Z,9.26
2017-05-20T04:00:01.701Z,9.28
2017-05-20T04:00:42.306Z,9.39
2017-05-20T04:01:22.801Z,9.31
2017-05-20T04:02:03.434Z,9.34
2017-05-20T04:02:44.009Z,9.43
2017-05-20T04:03:26.558Z,9.37
2017-05-20T04:04:07.070Z,9.32
2017-05-20T04:04:47.674Z,9.47
2017-05-20T04:05:28.307Z,9.4
2017-05-20T04:06:08.844Z,9.41
2017-05-20T04:06:49.437Z,9.4
2017-05-20T04:07:30.065Z,9.43
2017-05-20T04:08:10.617Z,9.43
2017-05-20T04:08:51.157Z,9.4
2017-05-20T04:09:31.669Z,9.41
2017-05-20T04:10:12.280Z,9.44
2017-05-20T04:10:52.929Z,9.48
2017-05-20T04:11:33.461Z,9.54
2017-05-20T04:12:14.040Z,9.51
2017-05-20T04:12:54.625Z,9.58
2017-05-20T04:13:35.224Z,9.59
2017-05-20T04:14:15.765Z,9.54
2017-05-20T04:14:57.377Z,9.48
2017-05-20T04:15:37.956Z,9.56
2017-05-20T04:16:18.608Z,9.56
2017-05-20T04:16:59.158Z,9.56
2017-05-20T04:17:39.766Z,9.54
2017-05-20T04:18:21.442Z,9.54
2017-05-20T04:19:01.904Z,9.55
2017-05-20T04:19:42.559Z,9.55
2017-05-20T04:20:23.196Z,9.54
2017-05-20T04:21:03.795Z,9.59
2017-05-20T04:21:44.396Z,9.51
2017-05-20T04:22:24.913Z,9.5
2017-05-20T04:23:05.517Z,9.51
2017-05-20T04:23:46.097Z,9.55
2017-05-20T04:24:26.693Z,9.65
2017-05-20T04:25:07.218Z,9.61
2017-05-20T04:25:47.827Z,9.64
2017-05-20T04:26:28.457Z,9.64
2017-05-20T04:27:08.991Z,9.66
2017-05-20T04:27:49.563Z,9.64
2017-05-20T04:28:30.198Z,9.64
2017-05-20T04:29:10.732Z,9.66
2017-05-20T04:29:51.331Z,9.61
2017-05-20T04:30:31.977Z,9.66
2017-05-20T04:31:12.618Z,9.62
2017-05-20T04:31:54.192Z,9.73
2017-05-20T04:32:34.845Z,9.76
2017-05-20T04:33:15.499Z,9.69
2017-05-20T04:33:56.034Z,9.73
2017-05-20T04:34:36.659Z,9.76
2017-05-20T04:35:17.270Z,9.74
2017-05-20T04:35:57.920Z,9.73
2017-05-20T04:36:38.544Z,9.79
2017-05-20T04:37:19.108Z,9.82
2017-05-20T04:37:59.607Z,9.77
2017-05-20T04:38:40.235Z,9.77
2017-05-20T04:39:20.804Z,9.83
2017-05-20T04:40:01.408Z,9.79
2017-05-20T04:40:41.945Z,9.94
2017-05-20T04:41:22.516Z,9.87
2017-05-20T04:42:03.033Z,9.84
2017-05-20T04:42:43.632Z,9.89
2017-05-20T04:43:25.269Z,9.84
2017-05-20T04:44:05.931Z,9.98
2017-05-20T04:44:46.448Z,9.99
2017-05-20T04:45:27.070Z,9.94
2017-05-20T04:46:08.669Z,9.99
2017-05-20T04:46:49.289Z,10.04
2017-05-20T04:47:29.826Z,9.99
2017-05-20T04:48:10.378Z,10.01
2017-05-20T04:48:50.934Z,10.1
2017-05-20T04:49:31.485Z,10.12
2017-05-20T04:50:12.039Z,10.1
2017-05-20T04:50:53.620Z,10.1
2017-05-20T04:51:34.191Z,10.1
2017-05-20T04:52:14.821Z,10.09
2017-05-20T04:52:55.464Z,10.16
2017-05-20T04:53:36.027Z,10.09
2017-05-20T04:54:16.569Z,10.22
2017-05-20T04:54:57.155Z,10.25
2017-05-20T04:55:38.682Z,10.19
2017-05-20T04:56:19.328Z,10.22
2017-05-20T04:56:59.836Z,10.28
2017-05-20T04:57:40.434Z,10.19
2017-05-20T04:58:20.989Z,10.2
2017-05-20T04:59:01.521Z,10.26
2017-05-20T04:59:42.104Z,10.28
2017-05-20T05:00:22.735Z,10.34
2017-05-20T05:01:03.393Z,10.35
2017-05-20T05:01:43.938Z,10.38
2017-05-20T05:02:25.511Z,10.44
2017-05-20T05:03:07.093Z,10.4
2017-05-20T05:03:50.098Z,10.38
2017-05-20T05:04:30.654Z,10.42
2017-05-20T05:05:12.224Z,10.51
2017-05-20T05:05:52.771Z,10.49
2017-05-20T05:06:34.352Z,10.56
2017-05-20T05:07:20.540Z,10.67
2017-05-20T05:08:01.082Z,10.6
2017-05-20T05:08:43.693Z,10.6
2017-05-20T05:09:29.052Z,10.67
2017-05-20T05:10:16.564Z,10.68
2017-05-20T05:10:58.154Z,10.67
2017-05-20T05:11:39.729Z,10.69
2017-05-20T05:12:21.296Z,10.68
2017-05-20T05:13:08.615Z,10.71
2017-05-20T05:13:51.191Z,10.69
2017-05-20T05:14:31.743Z,10.76
2017-05-20T05:15:14.341Z,10.81
2017-05-20T05:15:55.979Z,10.79
2017-05-20T05:16:37.597Z,10.92
2017-05-20T05:17:18.108Z,10.82
2017-05-20T05:18:03.527Z,10.81
2017-05-20T05:18:44.161Z,10.87
2017-05-20T05:19:24.684Z,11.02
2017-05-20T05:20:06.303Z,10.96
2017-05-20T05:20:47.960Z,11.05
2017-05-20T05:21:28.458Z,11.04
2017-05-20T05:22:10.007Z,10.99
2017-05-20T05:22:52.597Z,11.14
2017-05-20T05:23:33.160Z,11.02
2017-05-20T05:24:13.743Z,11.11
2017-05-20T05:24:54.299Z,11.18
2017-05-20T05:25:34.843Z,11.18
2017-05-20T05:26:15.447Z,11.22
2017-05-20T05:26:55.994Z,11.25
2017-05-20T05:27:36.553Z,11.19
2017-05-20T05:28:17.140Z,11.19
2017-05-20T05:28:57.745Z,11.26
2017-05-20T05:29:38.268Z,11.19
2017-05-20T05:30:18.868Z,11.32
2017-05-20T05:30:59.463Z,11.32
2017-05-20T05:31:40.066Z,11.22
2017-05-20T05:32:20.697Z,11.26
2017-05-20T05:33:01.307Z,11.25
2017-05-20T05:33:41.920Z,11.17
2017-05-20T05:34:22.512Z,11.17
2017-05-20T05:35:03.174Z,11.17
2017-05-20T05:35:43.805Z,11.18
2017-05-20T05:36:24.424Z,11.22
2017-05-20T05:37:04.959Z,11.22
2017-05-20T05:37:45.536Z,11.22
2017-05-20T05:38:26.167Z,11.3
2017-05-20T05:39:06.719Z,11.29
2017-05-20T05:39:47.311Z,11.29
2017-05-20T05:40:27.828Z,11.4
2017-05-20T05:41:08.476Z,11.4
2017-05-20T05:41:50.159Z,11.43
2017-05-20T05:42:30.697Z,11.43
2017-05-20T05:43:11.332Z,11.47
2017-05-20T05:43:51.920Z,11.5
2017-05-20T05:44:32.471Z,11.45
2017-05-20T05:45:13.137Z,11.5
2017-05-20T05:45:53.668Z,11.47
2017-05-20T05:46:34.279Z,11.51
2017-05-20T05:47:14.875Z,11.5
2017-05-20T05:47:55.376Z,11.45
2017-05-20T05:48:35.956Z,11.48
2017-05-20T05:49:17.567Z,11.59
2017-05-20T05:49:58.156Z,11.48
2017-05-20T05:50:38.757Z,11.54
2017-05-20T05:51:19.291Z,11.55
2017-05-20T05:51:59.857Z,11.6
2017-05-20T05:52:40.431Z,11.65
2017-05-20T05:53:21.980Z,11.72
2017-05-20T05:54:02.555Z,11.8
2017-05-20T05:54:43.186Z,11.83
2017-05-20T05:55:23.823Z,11.86
2017-05-20T05:56:04.389Z,11.91
2017-05-20T05:56:44.939Z,11.91
2017-05-20T05:57:25.518Z,11.97
2017-05-20T05:58:06.038Z,11.97
2017-05-20T05:58:46.634Z,11.86
2017-05-20T05:59:27.248Z,11.86
2017-05-20T06:00:07.805Z,11.86
2017-05-20T06:00:49.392Z,11.94
2017-05-20T06:01:29.990Z,11.97
2017-05-20T06:02:10.576Z,11.94
2017-05-20T06:02:51.108Z,11.97
2017-05-20T06:03:31.729Z,11.97
2017-05-20T06:04:12.348Z,12.04
2017-05-20T06:04:52.902Z,12.12
2017-05-20T06:05:33.450Z,12.15
2017-05-20T06:06:14.025Z,12.29
2017-05-20T06:06:54.655Z,12.36
2017-05-20T06:07:35.183Z,12.43
2017-05-20T06:08:15.918Z,12.45
2017-05-20T06:08:56.541Z,12.49
2017-05-20T06:09:37.135Z,12.54
2017-05-20T06:10:17.891Z,12.67
2017-05-20T06:10:58.441Z,12.7
2017-05-20T06:11:39.053Z,12.76
2017-05-20T06:12:19.642Z,12.8
2017-05-20T06:13:00.148Z,12.85
2017-05-20T06:13:40.775Z,12.86
2017-05-20T06:14:21.758Z,12.94
2017-05-20T06:15:02.359Z,12.97
2017-05-20T06:15:43.016Z,13.12
2017-05-20T06:16:23.561Z,13.13
2017-05-20T06:17:04.163Z,13.13
2017-05-20T06:17:44.807Z,13.3
2017-05-20T06:18:25.426Z,13.23
2017-05-20T06:19:06.048Z,13.41
2017-05-20T06:19:46.631Z,13.49
2017-05-20T06:20:27.311Z,13.59
2017-05-20T06:21:07.863Z,13.53
2017-05-20T06:21:48.460Z,13.62
2017-05-20T06:22:29.991Z,13.62
2017-05-20T06:23:10.544Z,13.59
2017-05-20T06:23:51.105Z,13.49
2017-05-20T06:24:31.784Z,13.42
2017-05-20T06:25:13.355Z,13.35
2017-05-20T06:25:54.024Z,13.31
2017-05-20T06:26:34.667Z,13.27
2017-05-20T06:27:15.223Z,13.33
2017-05-20T06:27:55.839Z,13.25
2017-05-20T06:28:36.426Z,13.35
2017-05-20T06:29:17.072Z,13.33
2017-05-20T06:29:57.638Z,13.3
2017-05-20T06:30:38.181Z,13.25
2017-05-20T06:31:18.724Z,13.37
2017-05-20T06:31:59.368Z,13.49
2017-05-20T06:32:39.934Z,13.56
2017-05-20T06:33:20.572Z,13.52
2017-05-20T06:34:01.127Z,13.59
2017-05-20T06:34:41.700Z,13.6
2017-05-20T06:35:22.360Z,13.67
2017-05-20T06:36:02.979Z,13.79
2017-05-20T06:36:43.553Z,13.92
2017-05-20T06:37:24.141Z,14.03
2017-05-20T06:38:04.761Z,14.15
2017-05-20T06:38:45.316Z,14.33
2017-05-20T06:39:25.953Z,14.59
2017-05-20T06:40:06.501Z,14.79
2017-05-20T06:40:47.084Z,14.99
2017-05-20T06:41:27.713Z,15.09
2017-05-20T06:42:08.360Z,15.37
2017-05-20T06:42:48.908Z,15.55
2017-05-20T06:43:29.454Z,15.67
2017-05-20T06:44:09.990Z,15.88
2017-05-20T06:44:50.564Z,16.02
2017-05-20T06:45:31.146Z,16.12
2017-05-20T06:46:11.752Z,16.31
2017-05-20T06:46:52.258Z,16.43
2017-05-20T06:47:32.873Z,16.57
2017-05-20T06:48:13.464Z,16.66
2017-05-20T06:48:54.071Z,16.78
2017-05-20T06:49:34.578Z,16.74
2017-05-20T06:50:15.227Z,16.72
2017-05-20T06:50:55.767Z,16.72
2017-05-20T06:51:36.316Z,16.72
2017-05-20T06:52:16.869Z,16.65
2017-05-20T06:52:57.523Z,16.56
2017-05-20T06:53:38.112Z,16.5
2017-05-20T06:54:18.696Z,16.42
2017-05-20T06:54:59.328Z,16.31
2017-05-20T06:55:39.870Z,16.36
2017-05-20T06:56:20.393Z,16.26
2017-05-20T06:57:01.014Z,16.28
2017-05-20T06:57:41.661Z,16.15
2017-05-20T06:58:23.193Z,16.17
2017-05-20T06:59:03.714Z,16.09
2017-05-20T06:59:45.352Z,16.08
2017-05-20T07:00:25.872Z,15.98
2017-05-20T07:01:06.400Z,16.04
2017-05-20T07:01:47.005Z,16.08
2017-05-20T07:02:27.557Z,16.08
2017-05-20T07:03:08.155Z,15.94
2017-05-20T07:03:48.679Z,15.94
2017-05-20T07:04:29.289Z,15.88
2017-05-20T07:05:09.821Z,15.84
2017-05-20T07:05:51.436Z,15.9
2017-05-20T07:06:32.062Z,15.73
2017-05-20T07:07:12.641Z,15.68
2017-05-20T07:07:53.291Z,15.64
2017-05-20T07:08:34.862Z,15.64
2017-05-20T07:09:15.485Z,15.54
2017-05-20T07:09:56.029Z,15.54
2017-05-20T07:10:36.570Z,15.61
2017-05-20T07:11:17.145Z,15.55
2017-05-20T07:11:57.733Z,15.58
2017-05-20T07:12:38.383Z,15.54
2017-05-20T07:13:18.978Z,15.43
2017-05-20T07:13:59.651Z,15.31
2017-05-20T07:14:40.189Z,15.27
2017-05-20T07:15:20.753Z,15.28
2017-05-20T07:16:01.411Z,15.21
2017-05-20T07:16:42.060Z,15.11
2017-05-20T07:17:22.722Z,15.06
2017-05-20T07:18:03.239Z,14.99
2017-05-20T07:18:43.819Z,14.91
2017-05-20T07:19:24.333Z,14.7
2017-05-20T07:20:04.918Z,14.65
2017-05-20T07:20:45.571Z,14.59
2017-05-20T07:21:26.145Z,14.45
2017-05-20T07:22:06.740Z,14.3
2017-05-20T07:22:47.254Z,14.25
2017-05-20T07:23:27.858Z,14.17
2017-05-20T07:24:08.449Z,14.12
2017-05-20T07:24:49.045Z,13.99
2017-05-20T07:25:29.579Z,13.9
2017-05-20T07:26:10.198Z,13.9
2017-05-20T07:26:50.765Z,13.81
2017-05-20T07:27:31.353Z,13.81
2017-05-20T07:28:11.885Z,13.71
2017-05-20T07:28:52.479Z,13.59
2017-05-20T07:29:33.007Z,13.63
2017-05-20T07:30:13.596Z,13.63
2017-05-20T07:30:54.172Z,13.54
2017-05-20T07:31:34.838Z,13.5
2017-05-20T07:32:15.351Z,13.46
2017-05-20T07:32:56.023Z,13.38
2017-05-20T07:33:36.618Z,13.31
2017-05-20T07:34:17.196Z,13.35
2017-05-20T07:34:57.840Z,13.28
2017-05-20T07:35:38.362Z,13.41
2017-05-20T07:36:18.945Z,13.35
2017-05-20T07:36:59.467Z,13.38
2017-05-20T07:37:40.160Z,13.41
2017-05-20T07:38:20.675Z,13.35
2017-05-20T07:39:01.233Z,13.42
2017-05-20T07:39:41.776Z,13.41
2017-05-20T07:40:24.391Z,13.44
2017-05-20T07:41:05.019Z,13.46
2017-05-20T07:41:45.626Z,13.44
2017-05-20T07:42:26.226Z,13.38
2017-05-20T07:43:06.753Z,13.38
2017-05-20T07:43:47.394Z,13.42
2017-05-20T07:44:28.010Z,13.38
2017-05-20T07:46:41.466Z,13.5
2017-05-20T07:47:23.081Z,13.47
2017-05-20T07:48:03.666Z,13.46
2017-05-20T07:48:44.267Z,13.5
2017-05-20T07:49:24.775Z,13.46
2017-05-20T07:50:05.400Z,13.46
2017-05-20T07:50:46.940Z,13.5
2017-05-20T07:51:27.470Z,13.46
2017-05-20T07:52:08.044Z,13.5
2017-05-20T07:52:48.550Z,13.52
2017-05-20T07:53:29.158Z,13.42
2017-05-20T07:54:09.717Z,13.49
2017-05-20T07:54:50.244Z,13.52
2017-05-20T07:55:30.798Z,13.52
2017-05-20T07:56:11.314Z,13.52
2017-05-20T07:56:51.923Z,13.56
2017-05-20T07:57:32.568Z,13.56
2017-05-20T07:58:13.158Z,13.5
2017-05-20T07:58:53.776Z,13.59
2017-05-20T07:59:34.495Z,13.54
2017-05-20T08:00:15.084Z,13.59
2017-05-20T08:00:55.724Z,13.59
2017-05-20T08:01:36.575Z,13.56
2017-05-20T08:02:17.080Z,13.59
2017-05-20T08:02:57.714Z,13.57
2017-05-20T08:03:38.322Z,13.6
2017-05-20T08:04:19.926Z,13.57
2017-05-20T08:05:00.472Z,13.57
2017-05-20T08:05:41.204Z,13.53
2017-05-20T08:06:22.053Z,13.57
2017-05-20T08:07:02.848Z,13.56
2017-05-20T08:07:43.479Z,13.54
2017-05-20T08:08:24.037Z,13.54
2017-05-20T08:09:04.594Z,13.63
2017-05-20T08:09:45.170Z,13.59
2017-05-20T08:10:26.790Z,13.59
2017-05-20T08:11:07.353Z,13.59
2017-05-20T08:11:47.911Z,13.59
2017-05-20T08:12:28.509Z,13.6
2017-05-20T08:13:09.038Z,13.57
2017-05-20T08:13:49.629Z,13.68
2017-05-20T08:14:30.180Z,13.65
2017-05-20T08:15:10.814Z,13.68
2017-05-20T08:15:51.369Z,13.68
2017-05-20T08:16:32.014Z,13.78
2017-05-20T08:17:12.634Z,13.75
2017-05-20T08:17:53.200Z,13.78
2017-05-20T08:18:33.819Z,13.85
2017-05-20T08:19:14.425Z,13.93
2017-05-20T08:19:55.076Z,13.95
2017-05-20T08:20:35.805Z,13.97
2017-05-20T08:21:16.377Z,13.97
2017-05-20T08:21:57.033Z,13.96
2017-05-20T08:22:37.657Z,13.9
2017-05-20T08:23:18.183Z,13.93
2017-05-20T08:23:58.780Z,13.97
2017-05-20T08:24:39.459Z,13.99
2017-05-20T08:25:20.119Z,13.97
2017-05-20T08:26:00.723Z,13.92
2017-05-20T08:26:41.269Z,14
2017-05-20T08:27:21.822Z,14.03
2017-05-20T08:28:02.342Z,14.11
2017-05-20T08:28:42.899Z,14.15
2017-05-20T08:29:23.420Z,14.12
2017-05-20T08:30:04.020Z,14.12
2017-05-20T08:30:44.622Z,14.2
2017-05-20T08:31:25.273Z,14.12
2017-05-20T08:32:05.879Z,14.17
2017-05-20T08:32:47.471Z,14.22
2017-05-20T08:33:28.221Z,14.2
2017-05-20T08:34:08.768Z,14.25
2017-05-20T08:34:49.319Z,14.3
2017-05-20T08:35:29.880Z,14.4
2017-05-20T08:36:10.517Z,14.41
2017-05-20T08:36:51.115Z,14.41
2017-05-20T08:37:31.695Z,14.45
2017-05-20T08:38:12.253Z,14.44
2017-05-20T08:38:52.835Z,14.44
2017-05-20T08:39:33.425Z,14.43
2017-05-20T08:40:14.010Z,14.45
2017-05-20T08:40:54.516Z,14.48
2017-05-20T08:41:35.145Z,14.55
2017-05-20T08:42:15.742Z,14.6
2017-05-20T08:42:56.313Z,14.55
2017-05-20T08:43:36.851Z,14.59
2017-05-20T08:44:17.450Z,14.6
2017-05-20T08:45:00.085Z,14.68
2017-05-20T08:45:40.658Z,14.79
2017-05-20T08:46:21.210Z,14.78
2017-05-20T08:47:01.801Z,14.84
2017-05-20T08:47:43.366Z,14.85
2017-05-20T08:48:24.005Z,14.92
2017-05-20T08:49:04.672Z,14.94
2017-05-20T08:49:45.229Z,14.97
2017-05-20T08:50:26.794Z,14.96
2017-05-20T08:51:08.383Z,14.88
2017-05-20T08:51:49.008Z,14.88
2017-05-20T08:52:29.523Z,14.85
2017-05-20T08:53:10.166Z,14.82
2017-05-20T08:53:50.760Z,14.88
2017-05-20T08:54:31.306Z,14.91
2017-05-20T08:55:11.860Z,14.99
2017-05-20T08:55:52.436Z,14.96
2017-05-20T08:56:33.980Z,15.09